sensor_id;sensor_type;location;lat;lon;timestamp;temperature;humidity
43151;DHT22;28755;51.478;5.702;2023-02-02T00:01:35;8.80;99.90
43151;DHT22;28755;51.478;5.702;2023-02-02T00:04:01;8.80;99.90
43151;DHT22;28755;51.478;5.702;2023-02-02T00:06:29;8.80;99.90
43151;DHT22;28755;51.478;5.702;2023-02-02T00:08:56;8.80;99.90
43151;DHT22;28755;51.478;5.702;2023-02-02T00:11:23;8.80;99.90
43151;DHT22;28755;51.478;5.702;2023-02-02T00:13:49;8.90;99.90
43151;DHT22;28755;51.478;5.702;2023-02-02T00:16:45;8.80;99.90
43151;DHT22;28755;51.478;5.702;2023-02-02T00:19:19;8.70;99.90
43151;DHT22;28755;51.478;5.702;2023-02-02T00:21:46;8.70;99.90
43151;DHT22;28755;51.478;5.702;2023-02-02T00:24:13;8.70;99.90
43151;DHT22;28755;51.478;5.702;2023-02-02T00:26:40;8.80;99.90
43151;DHT22;28755;51.478;5.702;2023-02-02T00:29:07;8.70;99.90
43151;DHT22;28755;51.478;5.702;2023-02-02T00:31:35;8.80;99.90
43151;DHT22;28755;51.478;5.702;2023-02-02T00:34:00;8.80;99.90
43151;DHT22;28755;51.478;5.702;2023-02-02T00:36:26;8.80;99.90
43151;DHT22;28755;51.478;5.702;2023-02-02T00:38:52;8.80;99.90
43151;DHT22;28755;51.478;5.702;2023-02-02T00:41:18;8.80;99.90
43151;DHT22;28755;51.478;5.702;2023-02-02T00:43:44;8.80;99.90
43151;DHT22;28755;51.478;5.702;2023-02-02T00:46:17;8.80;99.90
43151;DHT22;28755;51.478;5.702;2023-02-02T00:48:43;8.80;99.90
43151;DHT22;28755;51.478;5.702;2023-02-02T00:51:08;8.80;99.90
43151;DHT22;28755;51.478;5.702;2023-02-02T00:53:34;8.80;99.90
43151;DHT22;28755;51.478;5.702;2023-02-02T00:56:00;8.90;99.90
43151;DHT22;28755;51.478;5.702;2023-02-02T00:58:25;8.80;99.90
43151;DHT22;28755;51.478;5.702;2023-02-02T01:00:51;8.90;99.90
43151;DHT22;28755;51.478;5.702;2023-02-02T01:03:17;8.90;99.90
43151;DHT22;28755;51.478;5.702;2023-02-02T01:05:42;8.90;99.90
43151;DHT22;28755;51.478;5.702;2023-02-02T01:08:09;8.90;99.90
43151;DHT22;28755;51.478;5.702;2023-02-02T01:10:35;8.90;99.90
43151;DHT22;28755;51.478;5.702;2023-02-02T01:13:00;8.90;99.90
43151;DHT22;28755;51.478;5.702;2023-02-02T01:15:26;9.00;99.90
43151;DHT22;28755;51.478;5.702;2023-02-02T01:17:54;9.00;99.90
43151;DHT22;28755;51.478;5.702;2023-02-02T01:20:20;9.00;99.90
43151;DHT22;28755;51.478;5.702;2023-02-02T01:22:46;8.90;99.90
43151;DHT22;28755;51.478;5.702;2023-02-02T01:25:12;9.00;99.90
43151;DHT22;28755;51.478;5.702;2023-02-02T01:27:37;9.00;99.90
43151;DHT22;28755;51.478;5.702;2023-02-02T01:30:03;9.00;99.90
43151;DHT22;28755;51.478;5.702;2023-02-02T01:32:29;9.00;99.90
43151;DHT22;28755;51.478;5.702;2023-02-02T01:34:54;9.00;99.90
43151;DHT22;28755;51.478;5.702;2023-02-02T01:37:20;9.00;99.90
43151;DHT22;28755;51.478;5.702;2023-02-02T01:39:47;9.00;99.90
43151;DHT22;28755;51.478;5.702;2023-02-02T01:42:15;9.00;99.90
43151;DHT22;28755;51.478;5.702;2023-02-02T01:45:25;9.10;99.90
43151;DHT22;28755;51.478;5.702;2023-02-02T01:47:54;9.00;99.90
43151;DHT22;28755;51.478;5.702;2023-02-02T01:50:24;9.00;99.90
43151;DHT22;28755;51.478;5.702;2023-02-02T01:52:54;9.00;99.90
43151;DHT22;28755;51.478;5.702;2023-02-02T01:55:22;9.00;99.90
43151;DHT22;28755;51.478;5.702;2023-02-02T01:57:56;9.00;99.90
43151;DHT22;28755;51.478;5.702;2023-02-02T02:00:22;9.00;99.90
43151;DHT22;28755;51.478;5.702;2023-02-02T02:02:54;9.10;99.90
43151;DHT22;28755;51.478;5.702;2023-02-02T02:05:40;9.00;99.90
43151;DHT22;28755;51.478;5.702;2023-02-02T02:08:25;9.00;99.90
43151;DHT22;28755;51.478;5.702;2023-02-02T02:10:51;9.10;99.90
43151;DHT22;28755;51.478;5.702;2023-02-02T02:13:18;9.00;99.90
43151;DHT22;28755;51.478;5.702;2023-02-02T02:16:03;9.10;99.90
43151;DHT22;28755;51.478;5.702;2023-02-02T02:36:41;8.90;99.90
43151;DHT22;28755;51.478;5.702;2023-02-02T02:39:24;9.00;99.90
43151;DHT22;28755;51.478;5.702;2023-02-02T02:41:55;9.00;99.90
43151;DHT22;28755;51.478;5.702;2023-02-02T02:44:22;9.00;99.90
43151;DHT22;28755;51.478;5.702;2023-02-02T02:46:49;8.90;99.90
43151;DHT22;28755;51.478;5.702;2023-02-02T02:49:16;9.00;99.90
43151;DHT22;28755;51.478;5.702;2023-02-02T02:54:09;9.00;99.90
43151;DHT22;28755;51.478;5.702;2023-02-02T02:59:26;9.00;99.90
43151;DHT22;28755;51.478;5.702;2023-02-02T03:02:09;9.00;99.90
43151;DHT22;28755;51.478;5.702;2023-02-02T03:05:15;9.00;99.90
43151;DHT22;28755;51.478;5.702;2023-02-02T03:07:47;9.00;99.90
43151;DHT22;28755;51.478;5.702;2023-02-02T03:10:17;8.90;99.90
43151;DHT22;28755;51.478;5.702;2023-02-02T03:12:49;8.90;99.90
43151;DHT22;28755;51.478;5.702;2023-02-02T03:15:16;8.90;99.90
43151;DHT22;28755;51.478;5.702;2023-02-02T03:17:43;9.00;99.90
43151;DHT22;28755;51.478;5.702;2023-02-02T03:20:09;8.90;99.90
43151;DHT22;28755;51.478;5.702;2023-02-02T03:22:35;8.90;99.90
43151;DHT22;28755;51.478;5.702;2023-02-02T03:25:01;8.80;99.90
43151;DHT22;28755;51.478;5.702;2023-02-02T03:27:26;9.00;99.90
43151;DHT22;28755;51.478;5.702;2023-02-02T03:29:52;8.80;99.90
43151;DHT22;28755;51.478;5.702;2023-02-02T03:32:18;8.80;99.90
43151;DHT22;28755;51.478;5.702;2023-02-02T03:34:44;8.80;99.90
43151;DHT22;28755;51.478;5.702;2023-02-02T03:37:09;8.80;99.90
43151;DHT22;28755;51.478;5.702;2023-02-02T03:39:35;8.80;99.90
43151;DHT22;28755;51.478;5.702;2023-02-02T03:42:00;8.80;99.90
43151;DHT22;28755;51.478;5.702;2023-02-02T03:44:26;8.70;99.90
43151;DHT22;28755;51.478;5.702;2023-02-02T03:46:54;8.70;99.90
43151;DHT22;28755;51.478;5.702;2023-02-02T03:49:20;8.80;99.90
43151;DHT22;28755;51.478;5.702;2023-02-02T03:51:46;8.80;99.90
43151;DHT22;28755;51.478;5.702;2023-02-02T03:54:12;8.70;99.90
43151;DHT22;28755;51.478;5.702;2023-02-02T03:56:38;8.80;99.90
43151;DHT22;28755;51.478;5.702;2023-02-02T03:59:03;8.80;99.90
43151;DHT22;28755;51.478;5.702;2023-02-02T04:01:30;8.80;99.90
43151;DHT22;28755;51.478;5.702;2023-02-02T04:03:56;8.80;99.90
43151;DHT22;28755;51.478;5.702;2023-02-02T04:06:22;8.80;99.90
43151;DHT22;28755;51.478;5.702;2023-02-02T04:08:48;8.80;99.90
43151;DHT22;28755;51.478;5.702;2023-02-02T04:11:14;8.80;99.90
43151;DHT22;28755;51.478;5.702;2023-02-02T04:13:40;8.70;99.90
43151;DHT22;28755;51.478;5.702;2023-02-02T04:16:08;8.80;99.90
43151;DHT22;28755;51.478;5.702;2023-02-02T04:18:34;8.80;99.90
43151;DHT22;28755;51.478;5.702;2023-02-02T04:21:02;8.80;99.90
43151;DHT22;28755;51.478;5.702;2023-02-02T04:23:29;8.80;99.90
43151;DHT22;28755;51.478;5.702;2023-02-02T04:25:55;8.80;99.90
43151;DHT22;28755;51.478;5.702;2023-02-02T04:28:20;8.80;99.90
43151;DHT22;28755;51.478;5.702;2023-02-02T04:30:48;8.80;99.90
43151;DHT22;28755;51.478;5.702;2023-02-02T04:33:14;8.70;99.90
43151;DHT22;28755;51.478;5.702;2023-02-02T04:35:39;8.80;99.90
43151;DHT22;28755;51.478;5.702;2023-02-02T04:38:05;8.80;99.90
43151;DHT22;28755;51.478;5.702;2023-02-02T04:40:30;8.80;99.90
43151;DHT22;28755;51.478;5.702;2023-02-02T04:42:59;8.80;99.90
43151;DHT22;28755;51.478;5.702;2023-02-02T04:45:24;8.80;99.90
43151;DHT22;28755;51.478;5.702;2023-02-02T04:47:50;8.80;99.90
43151;DHT22;28755;51.478;5.702;2023-02-02T04:50:16;8.80;99.90
43151;DHT22;28755;51.478;5.702;2023-02-02T04:52:41;8.80;99.90
43151;DHT22;28755;51.478;5.702;2023-02-02T04:55:07;8.90;99.90
43151;DHT22;28755;51.478;5.702;2023-02-02T04:57:33;8.90;99.90
43151;DHT22;28755;51.478;5.702;2023-02-02T04:59:58;8.80;99.90
43151;DHT22;28755;51.478;5.702;2023-02-02T05:02:24;8.80;99.90
43151;DHT22;28755;51.478;5.702;2023-02-02T05:04:49;8.80;99.90
43151;DHT22;28755;51.478;5.702;2023-02-02T05:07:15;8.80;99.90
43151;DHT22;28755;51.478;5.702;2023-02-02T05:09:41;8.80;99.90
43151;DHT22;28755;51.478;5.702;2023-02-02T05:12:06;8.80;99.90
43151;DHT22;28755;51.478;5.702;2023-02-02T05:14:32;8.80;99.90
43151;DHT22;28755;51.478;5.702;2023-02-02T05:16:57;8.80;99.90
43151;DHT22;28755;51.478;5.702;2023-02-02T05:19:23;8.80;99.90
43151;DHT22;28755;51.478;5.702;2023-02-02T05:21:48;8.80;99.90
43151;DHT22;28755;51.478;5.702;2023-02-02T05:24:14;8.80;99.90
43151;DHT22;28755;51.478;5.702;2023-02-02T05:26:40;8.80;99.90
43151;DHT22;28755;51.478;5.702;2023-02-02T05:29:06;8.90;99.90
43151;DHT22;28755;51.478;5.702;2023-02-02T05:31:33;8.80;99.90
43151;DHT22;28755;51.478;5.702;2023-02-02T05:33:59;8.80;99.90
43151;DHT22;28755;51.478;5.702;2023-02-02T05:36:25;8.80;99.90
43151;DHT22;28755;51.478;5.702;2023-02-02T05:38:50;8.80;99.90
43151;DHT22;28755;51.478;5.702;2023-02-02T05:41:16;8.80;99.90
43151;DHT22;28755;51.478;5.702;2023-02-02T05:43:41;8.80;99.90
43151;DHT22;28755;51.478;5.702;2023-02-02T05:46:07;8.80;99.90
43151;DHT22;28755;51.478;5.702;2023-02-02T05:48:32;8.80;99.90
43151;DHT22;28755;51.478;5.702;2023-02-02T05:51:15;8.90;99.90
43151;DHT22;28755;51.478;5.702;2023-02-02T05:53:42;8.80;99.90
43151;DHT22;28755;51.478;5.702;2023-02-02T05:56:09;8.80;99.90
43151;DHT22;28755;51.478;5.702;2023-02-02T05:58:35;8.80;99.90
43151;DHT22;28755;51.478;5.702;2023-02-02T06:01:01;8.80;99.90
43151;DHT22;28755;51.478;5.702;2023-02-02T06:03:26;8.80;99.90
43151;DHT22;28755;51.478;5.702;2023-02-02T06:05:54;8.80;99.90
43151;DHT22;28755;51.478;5.702;2023-02-02T06:08:20;8.80;99.90
43151;DHT22;28755;51.478;5.702;2023-02-02T06:10:45;8.80;99.90
43151;DHT22;28755;51.478;5.702;2023-02-02T06:13:11;8.80;99.90
43151;DHT22;28755;51.478;5.702;2023-02-02T06:15:37;8.90;99.90
43151;DHT22;28755;51.478;5.702;2023-02-02T06:18:02;8.90;99.90
43151;DHT22;28755;51.478;5.702;2023-02-02T06:20:31;8.90;99.90
43151;DHT22;28755;51.478;5.702;2023-02-02T06:22:56;8.80;99.90
43151;DHT22;28755;51.478;5.702;2023-02-02T06:25:22;8.90;99.90
43151;DHT22;28755;51.478;5.702;2023-02-02T06:27:47;8.90;99.90
43151;DHT22;28755;51.478;5.702;2023-02-02T06:30:14;9.00;99.90
43151;DHT22;28755;51.478;5.702;2023-02-02T06:32:40;8.90;99.90
43151;DHT22;28755;51.478;5.702;2023-02-02T06:35:06;8.90;99.90
43151;DHT22;28755;51.478;5.702;2023-02-02T06:37:32;8.90;99.90
43151;DHT22;28755;51.478;5.702;2023-02-02T06:40:00;8.90;99.90
43151;DHT22;28755;51.478;5.702;2023-02-02T06:42:25;8.90;99.90
43151;DHT22;28755;51.478;5.702;2023-02-02T06:44:51;8.90;99.90
43151;DHT22;28755;51.478;5.702;2023-02-02T06:47:16;8.90;99.90
43151;DHT22;28755;51.478;5.702;2023-02-02T06:49:42;9.00;99.90
43151;DHT22;28755;51.478;5.702;2023-02-02T06:52:07;8.80;99.90
43151;DHT22;28755;51.478;5.702;2023-02-02T06:54:33;8.80;99.90
43151;DHT22;28755;51.478;5.702;2023-02-02T06:56:58;8.80;99.90
43151;DHT22;28755;51.478;5.702;2023-02-02T06:59:24;8.80;99.90
43151;DHT22;28755;51.478;5.702;2023-02-02T07:01:49;8.80;99.90
43151;DHT22;28755;51.478;5.702;2023-02-02T07:04:18;8.80;99.90
43151;DHT22;28755;51.478;5.702;2023-02-02T07:06:44;8.80;99.90
43151;DHT22;28755;51.478;5.702;2023-02-02T07:09:10;8.80;99.90
43151;DHT22;28755;51.478;5.702;2023-02-02T07:11:35;8.80;99.90
43151;DHT22;28755;51.478;5.702;2023-02-02T07:14:02;8.80;99.90
43151;DHT22;28755;51.478;5.702;2023-02-02T07:16:28;8.80;99.90
43151;DHT22;28755;51.478;5.702;2023-02-02T07:18:53;8.70;99.90
43151;DHT22;28755;51.478;5.702;2023-02-02T07:21:21;8.70;99.90
43151;DHT22;28755;51.478;5.702;2023-02-02T07:23:47;8.80;99.90
43151;DHT22;28755;51.478;5.702;2023-02-02T07:26:13;8.70;99.90
43151;DHT22;28755;51.478;5.702;2023-02-02T07:28:39;8.70;99.90
43151;DHT22;28755;51.478;5.702;2023-02-02T07:31:20;8.80;99.90
43151;DHT22;28755;51.478;5.702;2023-02-02T07:33:46;8.70;99.90
43151;DHT22;28755;51.478;5.702;2023-02-02T07:36:14;8.80;99.90
43151;DHT22;28755;51.478;5.702;2023-02-02T07:38:41;8.80;99.90
43151;DHT22;28755;51.478;5.702;2023-02-02T07:41:07;8.70;99.90
43151;DHT22;28755;51.478;5.702;2023-02-02T07:43:32;8.70;99.90
43151;DHT22;28755;51.478;5.702;2023-02-02T07:46:03;8.70;99.90
43151;DHT22;28755;51.478;5.702;2023-02-02T07:48:31;8.70;99.90
43151;DHT22;28755;51.478;5.702;2023-02-02T07:51:00;8.70;99.90
43151;DHT22;28755;51.478;5.702;2023-02-02T07:53:26;8.60;99.90
43151;DHT22;28755;51.478;5.702;2023-02-02T07:55:52;8.60;99.90
43151;DHT22;28755;51.478;5.702;2023-02-02T07:58:18;8.60;99.90
43151;DHT22;28755;51.478;5.702;2023-02-02T08:00:43;8.70;99.90
43151;DHT22;28755;51.478;5.702;2023-02-02T08:03:12;8.70;99.90
43151;DHT22;28755;51.478;5.702;2023-02-02T08:05:37;8.70;99.90
43151;DHT22;28755;51.478;5.702;2023-02-02T08:08:03;8.60;99.90
43151;DHT22;28755;51.478;5.702;2023-02-02T08:10:28;8.60;99.90
43151;DHT22;28755;51.478;5.702;2023-02-02T08:12:54;8.70;99.90
43151;DHT22;28755;51.478;5.702;2023-02-02T08:15:20;8.70;99.90
43151;DHT22;28755;51.478;5.702;2023-02-02T08:17:46;8.70;99.90
43151;DHT22;28755;51.478;5.702;2023-02-02T08:20:14;8.70;99.90
43151;DHT22;28755;51.478;5.702;2023-02-02T08:22:40;8.70;99.90
43151;DHT22;28755;51.478;5.702;2023-02-02T08:25:06;8.70;99.90
43151;DHT22;28755;51.478;5.702;2023-02-02T08:27:32;8.80;99.90
43151;DHT22;28755;51.478;5.702;2023-02-02T08:29:57;8.80;99.90
43151;DHT22;28755;51.478;5.702;2023-02-02T08:32:23;8.80;99.90
43151;DHT22;28755;51.478;5.702;2023-02-02T08:34:48;8.90;99.90
43151;DHT22;28755;51.478;5.702;2023-02-02T08:37:16;8.90;99.90
43151;DHT22;28755;51.478;5.702;2023-02-02T08:39:41;8.90;99.90
43151;DHT22;28755;51.478;5.702;2023-02-02T08:42:07;8.80;99.90
43151;DHT22;28755;51.478;5.702;2023-02-02T08:44:32;8.80;99.90
43151;DHT22;28755;51.478;5.702;2023-02-02T08:46:58;8.80;99.90
43151;DHT22;28755;51.478;5.702;2023-02-02T08:49:24;8.80;99.90
43151;DHT22;28755;51.478;5.702;2023-02-02T08:51:50;8.90;99.90
43151;DHT22;28755;51.478;5.702;2023-02-02T08:54:15;8.90;99.90
43151;DHT22;28755;51.478;5.702;2023-02-02T08:56:41;8.90;99.90
43151;DHT22;28755;51.478;5.702;2023-02-02T08:59:07;8.90;99.90
43151;DHT22;28755;51.478;5.702;2023-02-02T09:01:33;8.90;99.90
43151;DHT22;28755;51.478;5.702;2023-02-02T09:04:04;8.90;99.90
43151;DHT22;28755;51.478;5.702;2023-02-02T09:06:36;8.90;99.90
43151;DHT22;28755;51.478;5.702;2023-02-02T09:09:04;8.90;99.90
43151;DHT22;28755;51.478;5.702;2023-02-02T09:11:29;8.80;99.90
43151;DHT22;28755;51.478;5.702;2023-02-02T09:13:57;8.90;99.90
43151;DHT22;28755;51.478;5.702;2023-02-02T09:16:24;8.90;99.90
43151;DHT22;28755;51.478;5.702;2023-02-02T09:18:50;8.90;99.90
43151;DHT22;28755;51.478;5.702;2023-02-02T09:21:17;8.90;99.90
43151;DHT22;28755;51.478;5.702;2023-02-02T09:23:44;9.00;99.90
43151;DHT22;28755;51.478;5.702;2023-02-02T09:26:18;9.00;99.90
43151;DHT22;28755;51.478;5.702;2023-02-02T09:28:50;9.00;99.90
43151;DHT22;28755;51.478;5.702;2023-02-02T09:31:16;9.10;99.90
43151;DHT22;28755;51.478;5.702;2023-02-02T09:33:42;9.10;99.90
43151;DHT22;28755;51.478;5.702;2023-02-02T09:36:12;9.10;99.90
43151;DHT22;28755;51.478;5.702;2023-02-02T09:38:38;9.10;99.90
43151;DHT22;28755;51.478;5.702;2023-02-02T09:41:18;9.20;99.90
43151;DHT22;28755;51.478;5.702;2023-02-02T09:44:02;9.20;99.90
43151;DHT22;28755;51.478;5.702;2023-02-02T09:46:34;9.20;99.90
43151;DHT22;28755;51.478;5.702;2023-02-02T09:49:11;9.30;99.90
43151;DHT22;28755;51.478;5.702;2023-02-02T09:51:42;9.30;99.90
43151;DHT22;28755;51.478;5.702;2023-02-02T09:57:01;9.40;99.90
43151;DHT22;28755;51.478;5.702;2023-02-02T09:59:33;9.40;99.90
43151;DHT22;28755;51.478;5.702;2023-02-02T10:02:11;9.40;99.90
43151;DHT22;28755;51.478;5.702;2023-02-02T10:04:40;9.40;99.90
43151;DHT22;28755;51.478;5.702;2023-02-02T10:07:20;9.50;99.90
43151;DHT22;28755;51.478;5.702;2023-02-02T10:10:02;9.60;99.90
43151;DHT22;28755;51.478;5.702;2023-02-02T10:12:43;9.60;99.90
43151;DHT22;28755;51.478;5.702;2023-02-02T10:15:19;9.70;99.90
43151;DHT22;28755;51.478;5.702;2023-02-02T10:20:46;9.70;99.90
43151;DHT22;28755;51.478;5.702;2023-02-02T10:23:33;9.70;99.90
43151;DHT22;28755;51.478;5.702;2023-02-02T10:31:51;9.70;99.90
43151;DHT22;28755;51.478;5.702;2023-02-02T10:34:36;9.60;99.90
43151;DHT22;28755;51.478;5.702;2023-02-02T10:42:21;9.70;99.90
43151;DHT22;28755;51.478;5.702;2023-02-02T10:44:54;9.70;99.90
43151;DHT22;28755;51.478;5.702;2023-02-02T10:47:32;9.70;99.90
43151;DHT22;28755;51.478;5.702;2023-02-02T10:50:14;9.70;99.90
43151;DHT22;28755;51.478;5.702;2023-02-02T10:52:45;9.70;99.90
43151;DHT22;28755;51.478;5.702;2023-02-02T10:55:48;9.90;99.90
43151;DHT22;28755;51.478;5.702;2023-02-02T11:00:45;9.80;99.90
43151;DHT22;28755;51.478;5.702;2023-02-02T11:03:14;9.80;99.90
43151;DHT22;28755;51.478;5.702;2023-02-02T11:05:40;9.80;99.90
43151;DHT22;28755;51.478;5.702;2023-02-02T11:10:56;9.90;99.90
43151;DHT22;28755;51.478;5.702;2023-02-02T11:13:35;9.90;99.90
43151;DHT22;28755;51.478;5.702;2023-02-02T11:18:40;9.90;99.90
43151;DHT22;28755;51.478;5.702;2023-02-02T11:21:21;9.90;99.90
43151;DHT22;28755;51.478;5.702;2023-02-02T11:26:22;10.00;99.90
43151;DHT22;28755;51.478;5.702;2023-02-02T11:28:49;10.10;99.90
43151;DHT22;28755;51.478;5.702;2023-02-02T11:31:34;10.10;99.90
43151;DHT22;28755;51.478;5.702;2023-02-02T11:37:02;10.20;99.90
43151;DHT22;28755;51.478;5.702;2023-02-02T11:39:28;10.00;99.90
43151;DHT22;28755;51.478;5.702;2023-02-02T11:42:22;10.00;99.90
43151;DHT22;28755;51.478;5.702;2023-02-02T11:44:50;10.00;99.90
43151;DHT22;28755;51.478;5.702;2023-02-02T11:47:28;10.00;99.90
43151;DHT22;28755;51.478;5.702;2023-02-02T11:49:56;10.00;99.90
43151;DHT22;28755;51.478;5.702;2023-02-02T11:52:24;10.00;99.90
43151;DHT22;28755;51.478;5.702;2023-02-02T11:54:53;9.90;99.90
43151;DHT22;28755;51.478;5.702;2023-02-02T11:57:21;9.90;99.90
43151;DHT22;28755;51.478;5.702;2023-02-02T12:00:36;9.90;99.90
43151;DHT22;28755;51.478;5.702;2023-02-02T12:02:45;10.00;99.90
43151;DHT22;28755;51.478;5.702;2023-02-02T12:07:44;9.90;99.90
43151;DHT22;28755;51.478;5.702;2023-02-02T12:10:21;9.80;99.90
43151;DHT22;28755;51.478;5.702;2023-02-02T12:13:06;9.90;99.90
43151;DHT22;28755;51.478;5.702;2023-02-02T12:18:59;9.90;99.90
43151;DHT22;28755;51.478;5.702;2023-02-02T12:24:31;9.90;99.90
43151;DHT22;28755;51.478;5.702;2023-02-02T12:33:00;9.90;99.90
43151;DHT22;28755;51.478;5.702;2023-02-02T12:35:40;9.90;99.90
43151;DHT22;28755;51.478;5.702;2023-02-02T12:38:16;10.00;99.90
43151;DHT22;28755;51.478;5.702;2023-02-02T12:41:12;10.00;99.90
43151;DHT22;28755;51.478;5.702;2023-02-02T12:46:54;10.00;99.90
43151;DHT22;28755;51.478;5.702;2023-02-02T13:00:15;10.10;99.90
43151;DHT22;28755;51.478;5.702;2023-02-02T13:08:34;10.00;99.90
43151;DHT22;28755;51.478;5.702;2023-02-02T13:11:30;9.90;99.90
43151;DHT22;28755;51.478;5.702;2023-02-02T13:14:11;10.00;99.90
43151;DHT22;28755;51.478;5.702;2023-02-02T13:16:40;10.00;99.90
43151;DHT22;28755;51.478;5.702;2023-02-02T13:21:44;10.10;99.90
43151;DHT22;28755;51.478;5.702;2023-02-02T13:24:14;10.20;99.90
43151;DHT22;28755;51.478;5.702;2023-02-02T13:26:43;10.10;99.90
43151;DHT22;28755;51.478;5.702;2023-02-02T13:29:26;10.10;99.90
43151;DHT22;28755;51.478;5.702;2023-02-02T13:35:12;10.00;99.90
43151;DHT22;28755;51.478;5.702;2023-02-02T13:40:39;10.10;99.90
43151;DHT22;28755;51.478;5.702;2023-02-02T13:46:25;10.10;99.90
43151;DHT22;28755;51.478;5.702;2023-02-02T13:57:17;10.00;99.90
43151;DHT22;28755;51.478;5.702;2023-02-02T14:00:24;9.90;99.90
43151;DHT22;28755;51.478;5.702;2023-02-02T14:02:56;9.90;99.90
43151;DHT22;28755;51.478;5.702;2023-02-02T14:08:04;9.90;99.90
43151;DHT22;28755;51.478;5.702;2023-02-02T14:10:37;9.90;99.90
43151;DHT22;28755;51.478;5.702;2023-02-02T14:13:17;9.90;99.90
43151;DHT22;28755;51.478;5.702;2023-02-02T14:16:04;9.90;99.90
43151;DHT22;28755;51.478;5.702;2023-02-02T14:24:00;9.80;99.90
43151;DHT22;28755;51.478;5.702;2023-02-02T14:26:43;9.80;99.90
43151;DHT22;28755;51.478;5.702;2023-02-02T14:34:42;9.80;99.90
43151;DHT22;28755;51.478;5.702;2023-02-02T14:45:42;9.70;99.90
43151;DHT22;28755;51.478;5.702;2023-02-02T14:48:21;9.60;99.90
43151;DHT22;28755;51.478;5.702;2023-02-02T14:50:53;9.50;99.90
43151;DHT22;28755;51.478;5.702;2023-02-02T14:53:31;9.50;99.90
43151;DHT22;28755;51.478;5.702;2023-02-02T14:56:05;9.40;99.90
43151;DHT22;28755;51.478;5.702;2023-02-02T15:03:55;9.30;99.90
43151;DHT22;28755;51.478;5.702;2023-02-02T15:09:32;9.10;99.90
43151;DHT22;28755;51.478;5.702;2023-02-02T15:20:15;9.10;99.90
43151;DHT22;28755;51.478;5.702;2023-02-02T15:23:23;9.10;99.90
43151;DHT22;28755;51.478;5.702;2023-02-02T15:28:56;9.00;99.90
43151;DHT22;28755;51.478;5.702;2023-02-02T15:31:41;9.00;99.90
43151;DHT22;28755;51.478;5.702;2023-02-02T15:34:23;8.90;99.90
43151;DHT22;28755;51.478;5.702;2023-02-02T15:36:55;9.00;99.90
43151;DHT22;28755;51.478;5.702;2023-02-02T15:39:29;8.90;99.90
43151;DHT22;28755;51.478;5.702;2023-02-02T15:41:56;8.90;99.90
43151;DHT22;28755;51.478;5.702;2023-02-02T15:44:41;8.80;99.90
43151;DHT22;28755;51.478;5.702;2023-02-02T15:47:13;8.80;99.90
43151;DHT22;28755;51.478;5.702;2023-02-02T15:49:40;8.80;99.90
43151;DHT22;28755;51.478;5.702;2023-02-02T15:52:14;8.80;99.90
43151;DHT22;28755;51.478;5.702;2023-02-02T15:54:49;8.80;99.90
43151;DHT22;28755;51.478;5.702;2023-02-02T15:57:31;8.80;99.90
43151;DHT22;28755;51.478;5.702;2023-02-02T15:59:59;8.80;99.90
43151;DHT22;28755;51.478;5.702;2023-02-02T16:04:53;8.70;99.90
43151;DHT22;28755;51.478;5.702;2023-02-02T16:07:22;8.70;99.90
43151;DHT22;28755;51.478;5.702;2023-02-02T16:09:50;8.70;99.90
43151;DHT22;28755;51.478;5.702;2023-02-02T16:12:21;8.70;99.90
43151;DHT22;28755;51.478;5.702;2023-02-02T16:14:51;8.70;99.90
43151;DHT22;28755;51.478;5.702;2023-02-02T16:17:29;8.70;99.90
43151;DHT22;28755;51.478;5.702;2023-02-02T16:20:02;8.70;99.90
43151;DHT22;28755;51.478;5.702;2023-02-02T16:22:31;8.70;99.90
43151;DHT22;28755;51.478;5.702;2023-02-02T16:25:00;8.70;99.90
43151;DHT22;28755;51.478;5.702;2023-02-02T16:27:29;8.70;99.90
43151;DHT22;28755;51.478;5.702;2023-02-02T16:30:00;8.70;99.90
43151;DHT22;28755;51.478;5.702;2023-02-02T16:32:28;8.70;99.90
43151;DHT22;28755;51.478;5.702;2023-02-02T16:34:54;8.70;99.90
43151;DHT22;28755;51.478;5.702;2023-02-02T16:39:48;8.70;99.90
43151;DHT22;28755;51.478;5.702;2023-02-02T16:42:23;8.70;99.90
43151;DHT22;28755;51.478;5.702;2023-02-02T16:44:49;8.70;99.90
43151;DHT22;28755;51.478;5.702;2023-02-02T16:49:52;8.60;99.90
43151;DHT22;28755;51.478;5.702;2023-02-02T16:52:20;8.70;99.90
43151;DHT22;28755;51.478;5.702;2023-02-02T16:54:56;8.60;99.90
43151;DHT22;28755;51.478;5.702;2023-02-02T16:57:25;8.70;99.90
43151;DHT22;28755;51.478;5.702;2023-02-02T16:59:53;8.70;99.90
43151;DHT22;28755;51.478;5.702;2023-02-02T17:02:29;8.70;99.90
43151;DHT22;28755;51.478;5.702;2023-02-02T17:05:02;8.70;99.90
43151;DHT22;28755;51.478;5.702;2023-02-02T17:07:31;8.70;99.90
43151;DHT22;28755;51.478;5.702;2023-02-02T17:10:27;8.80;99.90
43151;DHT22;28755;51.478;5.702;2023-02-02T17:12:56;8.80;99.90
43151;DHT22;28755;51.478;5.702;2023-02-02T17:15:34;8.80;99.90
43151;DHT22;28755;51.478;5.702;2023-02-02T17:18:00;8.80;99.90
43151;DHT22;28755;51.478;5.702;2023-02-02T17:20:27;8.90;99.90
43151;DHT22;28755;51.478;5.702;2023-02-02T17:23:02;8.80;99.90
43151;DHT22;28755;51.478;5.702;2023-02-02T17:25:35;8.80;99.90
43151;DHT22;28755;51.478;5.702;2023-02-02T17:28:03;8.80;99.90
43151;DHT22;28755;51.478;5.702;2023-02-02T17:30:31;8.80;99.90
43151;DHT22;28755;51.478;5.702;2023-02-02T17:32:56;8.90;99.90
43151;DHT22;28755;51.478;5.702;2023-02-02T17:35:25;8.90;99.90
43151;DHT22;28755;51.478;5.702;2023-02-02T17:37:51;9.00;99.90
43151;DHT22;28755;51.478;5.702;2023-02-02T17:40:18;9.00;99.90
43151;DHT22;28755;51.478;5.702;2023-02-02T17:42:48;9.00;99.90
43151;DHT22;28755;51.478;5.702;2023-02-02T17:45:19;9.00;99.90
43151;DHT22;28755;51.478;5.702;2023-02-02T17:47:45;9.10;99.90
43151;DHT22;28755;51.478;5.702;2023-02-02T17:50:10;9.10;99.90
43151;DHT22;28755;51.478;5.702;2023-02-02T17:52:36;9.10;99.90
43151;DHT22;28755;51.478;5.702;2023-02-02T17:55:23;9.10;99.90
43151;DHT22;28755;51.478;5.702;2023-02-02T17:57:51;9.10;99.90
43151;DHT22;28755;51.478;5.702;2023-02-02T18:00:18;9.10;99.90
43151;DHT22;28755;51.478;5.702;2023-02-02T18:02:45;9.00;99.90
43151;DHT22;28755;51.478;5.702;2023-02-02T18:05:11;9.10;99.90
43151;DHT22;28755;51.478;5.702;2023-02-02T18:07:38;9.10;99.90
43151;DHT22;28755;51.478;5.702;2023-02-02T18:10:05;9.00;99.90
43151;DHT22;28755;51.478;5.702;2023-02-02T18:12:30;9.00;99.90
43151;DHT22;28755;51.478;5.702;2023-02-02T18:15:03;9.00;99.90
43151;DHT22;28755;51.478;5.702;2023-02-02T18:17:29;9.00;99.90
43151;DHT22;28755;51.478;5.702;2023-02-02T18:19:55;9.10;99.90
43151;DHT22;28755;51.478;5.702;2023-02-02T18:22:21;9.00;99.90
43151;DHT22;28755;51.478;5.702;2023-02-02T18:24:47;9.20;99.90
43151;DHT22;28755;51.478;5.702;2023-02-02T18:27:13;9.20;99.90
43151;DHT22;28755;51.478;5.702;2023-02-02T18:29:40;9.20;99.90
43151;DHT22;28755;51.478;5.702;2023-02-02T18:32:06;9.10;99.90
43151;DHT22;28755;51.478;5.702;2023-02-02T18:34:32;9.20;99.90
43151;DHT22;28755;51.478;5.702;2023-02-02T18:36:58;9.20;99.90
43151;DHT22;28755;51.478;5.702;2023-02-02T18:39:24;9.20;99.90